sensor_id;sensor_type;location;lat;lon;timestamp;pressure;altitude;pressure_sealevel;temperature;humidity
40692;BME280;26377;53.344;14.886;2022-12-11T00:00:38;100914.77;;;-1.60;67.42
40692;BME280;26377;53.344;14.886;2022-12-11T00:03:09;100916.06;;;-1.65;67.29
40692;BME280;26377;53.344;14.886;2022-12-11T00:05:40;100918.66;;;-1.74;67.25
40692;BME280;26377;53.344;14.886;2022-12-11T00:08:08;100908.70;;;-1.79;67.32
40692;BME280;26377;53.344;14.886;2022-12-11T00:10:35;100908.27;;;-1.83;67.36
40692;BME280;26377;53.344;14.886;2022-12-11T00:13:05;100909.15;;;-1.88;67.29
40692;BME280;26377;53.344;14.886;2022-12-11T00:15:33;100920.83;;;-1.93;67.34
40692;BME280;26377;53.344;14.886;2022-12-11T00:18:01;100910.86;;;-1.98;67.32
40692;BME280;26377;53.344;14.886;2022-12-11T00:20:29;100910.44;;;-2.05;67.25
40692;BME280;26377;53.344;14.886;2022-12-11T00:22:57;100903.91;;;-2.11;67.26
40692;BME280;26377;53.344;14.886;2022-12-11T00:25:24;100905.66;;;-2.14;67.29
40692;BME280;26377;53.344;14.886;2022-12-11T00:27:52;100900.89;;;-2.18;67.30
40692;BME280;26377;53.344;14.886;2022-12-11T00:30:21;100899.58;;;-2.21;67.28
40692;BME280;26377;53.344;14.886;2022-12-11T00:32:50;100890.92;;;-2.23;67.31
40692;BME280;26377;53.344;14.886;2022-12-11T00:35:18;100896.11;;;-2.26;67.21
40692;BME280;26377;53.344;14.886;2022-12-11T00:37:45;100900.88;;;-2.33;67.12
40692;BME280;26377;53.344;14.886;2022-12-11T00:40:13;100903.45;;;-2.37;67.22
40692;BME280;26377;53.344;14.886;2022-12-11T00:42:40;100900.39;;;-2.43;67.19
40692;BME280;26377;53.344;14.886;2022-12-11T00:45:08;100900.84;;;-2.49;67.10
40692;BME280;26377;53.344;14.886;2022-12-11T00:47:38;100892.16;;;-2.57;67.14
40692;BME280;26377;53.344;14.886;2022-12-11T00:50:06;100900.36;;;-2.64;67.18
40692;BME280;26377;53.344;14.886;2022-12-11T00:52:36;100896.88;;;-2.64;67.30
40692;BME280;26377;53.344;14.886;2022-12-11T00:55:04;100905.55;;;-2.64;67.34
40692;BME280;26377;53.344;14.886;2022-12-11T00:57:31;100905.09;;;-2.63;67.36
40692;BME280;26377;53.344;14.886;2022-12-11T00:59:58;100910.74;;;-2.64;67.37
40692;BME280;26377;53.344;14.886;2022-12-11T01:02:26;100913.77;;;-2.63;67.39
40692;BME280;26377;53.344;14.886;2022-12-11T01:04:54;100914.63;;;-2.65;67.29
40692;BME280;26377;53.344;14.886;2022-12-11T01:07:22;100908.11;;;-2.73;67.31
40692;BME280;26377;53.344;14.886;2022-12-11T01:09:50;100911.11;;;-2.84;67.11
40692;BME280;26377;53.344;14.886;2022-12-11T01:12:35;100906.72;;;-2.94;67.13
40692;BME280;26377;53.344;14.886;2022-12-11T01:15:03;100906.70;;;-3.00;67.26
40692;BME280;26377;53.344;14.886;2022-12-11T01:17:31;100912.73;;;-3.07;67.27
40692;BME280;26377;53.344;14.886;2022-12-11T01:19:58;100907.03;;;-3.17;67.23
40692;BME280;26377;53.344;14.886;2022-12-11T01:22:26;100906.13;;;-3.23;67.25
40692;BME280;26377;53.344;14.886;2022-12-11T01:24:53;100910.00;;;-3.32;67.21
40692;BME280;26377;53.344;14.886;2022-12-11T01:27:20;100908.66;;;-3.37;67.36
40692;BME280;26377;53.344;14.886;2022-12-11T01:29:48;100910.38;;;-3.40;67.38
40692;BME280;26377;53.344;14.886;2022-12-11T01:32:16;100914.23;;;-3.43;67.47
40692;BME280;26377;53.344;14.886;2022-12-11T01:34:43;100916.36;;;-3.47;67.40
40692;BME280;26377;53.344;14.886;2022-12-11T01:37:10;100918.93;;;-3.53;67.40
40692;BME280;26377;53.344;14.886;2022-12-11T01:39:37;100917.19;;;-3.56;67.53
40692;BME280;26377;53.344;14.886;2022-12-11T01:42:04;100911.97;;;-3.59;67.51
40692;BME280;26377;53.344;14.886;2022-12-11T01:47:06;100913.66;;;-3.67;67.55
40692;BME280;26377;53.344;14.886;2022-12-11T01:49:34;100920.09;;;-3.71;67.58
40692;BME280;26377;53.344;14.886;2022-12-11T01:54:37;100910.62;;;-3.66;67.84
40692;BME280;26377;53.344;14.886;2022-12-11T01:57:07;100908.92;;;-3.64;67.85
40692;BME280;26377;53.344;14.886;2022-12-11T01:59:38;100911.06;;;-3.67;67.76
40692;BME280;26377;53.344;14.886;2022-12-11T02:02:23;100912.74;;;-3.70;67.72
40692;BME280;26377;53.344;14.886;2022-12-11T02:04:52;100908.41;;;-3.76;67.75
40692;BME280;26377;53.344;14.886;2022-12-11T02:07:19;100911.00;;;-3.76;67.84
40692;BME280;26377;53.344;14.886;2022-12-11T02:09:47;100904.05;;;-3.77;67.95
40692;BME280;26377;53.344;14.886;2022-12-11T02:12:23;100909.25;;;-3.75;67.87
40692;BME280;26377;53.344;14.886;2022-12-11T02:18:14;100906.64;;;-3.77;67.94
40692;BME280;26377;53.344;14.886;2022-12-11T02:20:49;100900.59;;;-3.79;67.93
40692;BME280;26377;53.344;14.886;2022-12-11T02:26:50;100911.36;;;-3.84;67.92
40692;BME280;26377;53.344;14.886;2022-12-11T02:29:34;100915.20;;;-3.87;68.04
40692;BME280;26377;53.344;14.886;2022-12-11T02:32:12;100903.11;;;-3.88;68.02
40692;BME280;26377;53.344;14.886;2022-12-11T02:34:45;100902.68;;;-3.89;68.06
40692;BME280;26377;53.344;14.886;2022-12-11T02:37:19;100904.82;;;-3.88;68.08
40692;BME280;26377;53.344;14.886;2022-12-11T02:39:47;100906.12;;;-3.88;68.11
40692;BME280;26377;53.344;14.886;2022-12-11T02:42:17;100906.58;;;-3.87;68.10
40692;BME280;26377;53.344;14.886;2022-12-11T02:44:47;100904.00;;;-3.87;68.13
40692;BME280;26377;53.344;14.886;2022-12-11T02:47:17;100895.34;;;-3.88;68.12
40692;BME280;26377;53.344;14.886;2022-12-11T02:49:48;100895.75;;;-3.88;68.13
40692;BME280;26377;53.344;14.886;2022-12-11T02:52:19;100902.68;;;-3.89;68.14
40692;BME280;26377;53.344;14.886;2022-12-11T02:54:48;100898.30;;;-3.94;68.03
40692;BME280;26377;53.344;14.886;2022-12-11T02:57:27;100899.17;;;-3.95;68.08
40692;BME280;26377;53.344;14.886;2022-12-11T03:00:04;100900.88;;;-3.96;68.12
40692;BME280;26377;53.344;14.886;2022-12-11T03:02:32;100904.77;;;-3.99;68.09
40692;BME280;26377;53.344;14.886;2022-12-11T03:05:00;100905.16;;;-4.01;68.06
40692;BME280;26377;53.344;14.886;2022-12-11T03:07:32;100907.31;;;-4.02;68.09
40692;BME280;26377;53.344;14.886;2022-12-11T03:09:59;100906.44;;;-4.02;68.14
40692;BME280;26377;53.344;14.886;2022-12-11T03:12:29;100901.72;;;-4.01;68.17
40692;BME280;26377;53.344;14.886;2022-12-11T03:14:59;100903.42;;;-4.02;68.14
40692;BME280;26377;53.344;14.886;2022-12-11T03:20:57;100893.47;;;-4.05;68.08
40692;BME280;26377;53.344;14.886;2022-12-11T03:26:05;100885.63;;;-4.11;68.12
40692;BME280;26377;53.344;14.886;2022-12-11T03:28:50;100886.05;;;-4.13;68.11
40692;BME280;26377;53.344;14.886;2022-12-11T03:31:34;100882.58;;;-4.17;68.11
40692;BME280;26377;53.344;14.886;2022-12-11T03:34:28;100883.84;;;-4.20;68.17
40692;BME280;26377;53.344;14.886;2022-12-11T03:36:59;100885.55;;;-4.20;68.24
40692;BME280;26377;53.344;14.886;2022-12-11T03:39:32;100882.97;;;-4.22;68.17
40692;BME280;26377;53.344;14.886;2022-12-11T03:42:07;100882.95;;;-4.23;68.18
40692;BME280;26377;53.344;14.886;2022-12-11T03:44:36;100879.05;;;-4.25;68.15
40692;BME280;26377;53.344;14.886;2022-12-11T03:47:05;100880.75;;;-4.28;68.11
40692;BME280;26377;53.344;14.886;2022-12-11T03:49:37;100875.55;;;-4.30;68.22
40692;BME280;26377;53.344;14.886;2022-12-11T03:52:08;100879.43;;;-4.30;68.17
40692;BME280;26377;53.344;14.886;2022-12-11T03:54:39;100884.12;;;-4.35;68.16
40692;BME280;26377;53.344;14.886;2022-12-11T03:57:10;100883.70;;;-4.35;68.25
40692;BME280;26377;53.344;14.886;2022-12-11T03:59:39;100879.81;;;-4.35;68.19
40692;BME280;26377;53.344;14.886;2022-12-11T04:02:06;100884.95;;;-4.38;68.12
40692;BME280;26377;53.344;14.886;2022-12-11T04:04:37;100881.94;;;-4.39;68.17
40692;BME280;26377;53.344;14.886;2022-12-11T04:07:07;100887.97;;;-4.40;68.19
40692;BME280;26377;53.344;14.886;2022-12-11T04:09:35;100890.95;;;-4.42;68.22
40692;BME280;26377;53.344;14.886;2022-12-11T04:12:02;100893.11;;;-4.43;68.17
40692;BME280;26377;53.344;14.886;2022-12-11T04:14:30;100894.81;;;-4.43;68.25
40692;BME280;26377;53.344;14.886;2022-12-11T04:17:15;100890.11;;;-4.42;68.28
40692;BME280;26377;53.344;14.886;2022-12-11T04:19:44;100887.93;;;-4.43;68.31
40692;BME280;26377;53.344;14.886;2022-12-11T04:22:29;100890.09;;;-4.44;68.27
40692;BME280;26377;53.344;14.886;2022-12-11T04:25:15;100887.45;;;-4.50;68.20
40692;BME280;26377;53.344;14.886;2022-12-11T04:27:42;100877.46;;;-4.53;68.31
40692;BME280;26377;53.344;14.886;2022-12-11T04:30:18;100879.22;;;-4.52;68.40
40692;BME280;26377;53.344;14.886;2022-12-11T04:32:47;100883.09;;;-4.51;68.45
40692;BME280;26377;53.344;14.886;2022-12-11T04:35:16;100885.69;;;-4.51;68.44
40692;BME280;26377;53.344;14.886;2022-12-11T04:37:44;100887.45;;;-4.50;68.47
40692;BME280;26377;53.344;14.886;2022-12-11T04:40:14;100885.27;;;-4.50;68.52
40692;BME280;26377;53.344;14.886;2022-12-11T04:42:42;100876.23;;;-4.49;68.58
40692;BME280;26377;53.344;14.886;2022-12-11T04:45:11;100878.00;;;-4.45;68.65
40692;BME280;26377;53.344;14.886;2022-12-11T04:47:39;100873.67;;;-4.44;68.61
40692;BME280;26377;53.344;14.886;2022-12-11T04:50:09;100877.13;;;-4.45;68.68
40692;BME280;26377;53.344;14.886;2022-12-11T04:52:37;100881.91;;;-4.40;68.84
40692;BME280;26377;53.344;14.886;2022-12-11T04:55:05;100869.84;;;-4.40;68.74
40692;BME280;26377;53.344;14.886;2022-12-11T04:57:33;100871.63;;;-4.33;68.92
40692;BME280;26377;53.344;14.886;2022-12-11T05:00:02;100872.55;;;-4.26;68.96
40692;BME280;26377;53.344;14.886;2022-12-11T05:02:33;100882.98;;;-4.19;69.11
40692;BME280;26377;53.344;14.886;2022-12-11T05:05:07;100887.78;;;-4.12;69.14
40692;BME280;26377;53.344;14.886;2022-12-11T05:07:31;100883.92;;;-4.11;68.98
40692;BME280;26377;53.344;14.886;2022-12-11T05:09:59;100886.08;;;-4.12;69.12
40692;BME280;26377;53.344;14.886;2022-12-11T05:12:26;100881.39;;;-4.03;69.27
40692;BME280;26377;53.344;14.886;2022-12-11T05:14:54;100881.42;;;-3.97;69.38
40692;BME280;26377;53.344;14.886;2022-12-11T05:17:21;100882.80;;;-3.88;69.47
40692;BME280;26377;53.344;14.886;2022-12-11T05:19:49;100885.45;;;-3.82;69.48
40692;BME280;26377;53.344;14.886;2022-12-11T05:22:17;100880.29;;;-3.81;69.24
40692;BME280;26377;53.344;14.886;2022-12-11T05:24:45;100879.42;;;-3.80;69.29
40692;BME280;26377;53.344;14.886;2022-12-11T05:27:12;100879.39;;;-3.83;69.24
40692;BME280;26377;53.344;14.886;2022-12-11T05:29:40;100879.42;;;-3.77;69.43
40692;BME280;26377;53.344;14.886;2022-12-11T05:32:07;100876.88;;;-3.72;69.51
40692;BME280;26377;53.344;14.886;2022-12-11T05:34:34;100876.05;;;-3.65;69.62
40692;BME280;26377;53.344;14.886;2022-12-11T05:37:01;100870.91;;;-3.61;69.50
40692;BME280;26377;53.344;14.886;2022-12-11T05:39:29;100870.03;;;-3.64;69.34
40692;BME280;26377;53.344;14.886;2022-12-11T05:41:56;100862.69;;;-3.63;69.33
40692;BME280;26377;53.344;14.886;2022-12-11T05:44:23;100863.51;;;-3.69;69.14
40692;BME280;26377;53.344;14.886;2022-12-11T05:46:51;100864.79;;;-3.73;69.27
40692;BME280;26377;53.344;14.886;2022-12-11T05:49:18;100859.19;;;-3.70;69.48
40692;BME280;26377;53.344;14.886;2022-12-11T05:51:46;100865.30;;;-3.62;69.61
40692;BME280;26377;53.344;14.886;2022-12-11T05:54:13;100859.73;;;-3.55;69.65
40692;BME280;26377;53.344;14.886;2022-12-11T05:56:41;100861.45;;;-3.51;69.66
40692;BME280;26377;53.344;14.886;2022-12-11T05:59:09;100859.30;;;-3.49;69.56
40692;BME280;26377;53.344;14.886;2022-12-11T06:01:39;100862.79;;;-3.47;69.68
40692;BME280;26377;53.344;14.886;2022-12-11T06:04:09;100866.27;;;-3.42;69.73
40692;BME280;26377;53.344;14.886;2022-12-11T06:06:39;100861.52;;;-3.41;69.74
40692;BME280;26377;53.344;14.886;2022-12-11T06:09:07;100852.01;;;-3.42;69.65
40692;BME280;26377;53.344;14.886;2022-12-11T06:11:37;100851.60;;;-3.37;69.86
40692;BME280;26377;53.344;14.886;2022-12-11T06:14:04;100845.98;;;-3.33;69.89
40692;BME280;26377;53.344;14.886;2022-12-11T06:16:32;100848.18;;;-3.31;69.81
40692;BME280;26377;53.344;14.886;2022-12-11T06:18:59;100840.83;;;-3.30;69.85
40692;BME280;26377;53.344;14.886;2022-12-11T06:21:28;100837.81;;;-3.27;70.01
40692;BME280;26377;53.344;14.886;2022-12-11T06:23:59;100836.14;;;-3.17;70.16
40692;BME280;26377;53.344;14.886;2022-12-11T06:26:30;100834.42;;;-3.08;70.20
40692;BME280;26377;53.344;14.886;2022-12-11T06:28:57;100833.61;;;-3.01;70.25
40692;BME280;26377;53.344;14.886;2022-12-11T06:31:24;100831.03;;;-2.98;70.11
40692;BME280;26377;53.344;14.886;2022-12-11T06:33:52;100835.35;;;-2.97;70.12
40692;BME280;26377;53.344;14.886;2022-12-11T06:36:21;100834.05;;;-2.94;70.19
40692;BME280;26377;53.344;14.886;2022-12-11T06:38:49;100837.52;;;-2.89;70.29
40692;BME280;26377;53.344;14.886;2022-12-11T06:41:17;100834.52;;;-2.81;70.35
40692;BME280;26377;53.344;14.886;2022-12-11T06:43:45;100836.70;;;-2.79;70.23
40692;BME280;26377;53.344;14.886;2022-12-11T06:46:18;100839.29;;;-2.76;70.30
40692;BME280;26377;53.344;14.886;2022-12-11T06:48:44;100836.72;;;-2.73;70.31
40692;BME280;26377;53.344;14.886;2022-12-11T06:51:17;100832.83;;;-2.71;70.23
40692;BME280;26377;53.344;14.886;2022-12-11T06:53:51;100827.19;;;-2.71;70.33
40692;BME280;26377;53.344;14.886;2022-12-11T06:56:21;100832.41;;;-2.65;70.44
40692;BME280;26377;53.344;14.886;2022-12-11T06:58:48;100828.51;;;-2.60;70.40
40692;BME280;26377;53.344;14.886;2022-12-11T07:01:27;100828.08;;;-2.55;70.50
40692;BME280;26377;53.344;14.886;2022-12-11T07:03:58;100820.73;;;-2.51;70.45
40692;BME280;26377;53.344;14.886;2022-12-11T07:06:26;100828.51;;;-2.54;70.33
40692;BME280;26377;53.344;14.886;2022-12-11T07:08:55;100827.21;;;-2.54;70.24
40692;BME280;26377;53.344;14.886;2022-12-11T07:11:22;100835.88;;;-2.55;70.43
40692;BME280;26377;53.344;14.886;2022-12-11T07:13:49;100839.78;;;-2.54;70.49
40692;BME280;26377;53.344;14.886;2022-12-11T07:16:17;100838.92;;;-2.50;70.57
40692;BME280;26377;53.344;14.886;2022-12-11T07:18:49;100846.73;;;-2.47;70.46
40692;BME280;26377;53.344;14.886;2022-12-11T07:21:18;100845.86;;;-2.46;70.44
40692;BME280;26377;53.344;14.886;2022-12-11T07:23:47;100833.30;;;-2.46;70.37
40692;BME280;26377;53.344;14.886;2022-12-11T07:26:17;100847.57;;;-2.48;70.42
40692;BME280;26377;53.344;14.886;2022-12-11T07:28:45;100849.33;;;-2.47;70.36
40692;BME280;26377;53.344;14.886;2022-12-11T07:31:16;100845.41;;;-2.51;70.37
40692;BME280;26377;53.344;14.886;2022-12-11T07:33:57;100848.89;;;-2.49;70.41
40692;BME280;26377;53.344;14.886;2022-12-11T07:36:24;100848.02;;;-2.50;70.49
40692;BME280;26377;53.344;14.886;2022-12-11T07:38:52;100854.52;;;-2.48;70.49
40692;BME280;26377;53.344;14.886;2022-12-11T07:41:21;100856.69;;;-2.49;70.52
40692;BME280;26377;53.344;14.886;2022-12-11T07:43:50;100854.95;;;-2.47;70.50
40692;BME280;26377;53.344;14.886;2022-12-11T07:46:20;100854.52;;;-2.48;70.53
40692;BME280;26377;53.344;14.886;2022-12-11T07:48:50;100859.27;;;-2.45;70.58
40692;BME280;26377;53.344;14.886;2022-12-11T07:51:26;100865.33;;;-2.43;70.60
40692;BME280;26377;53.344;14.886;2022-12-11T07:53:59;100861.45;;;-2.44;70.58
40692;BME280;26377;53.344;14.886;2022-12-11T07:56:29;100865.33;;;-2.41;70.66
40692;BME280;26377;53.344;14.886;2022-12-11T07:58:59;100870.52;;;-2.43;70.60
40692;BME280;26377;53.344;14.886;2022-12-11T08:01:28;100871.84;;;-2.40;70.70
40692;BME280;26377;53.344;14.886;2022-12-11T08:03:56;100874.01;;;-2.41;70.68
40692;BME280;26377;53.344;14.886;2022-12-11T08:06:27;100872.28;;;-2.42;70.76
40692;BME280;26377;53.344;14.886;2022-12-11T08:08:58;100879.22;;;-2.38;70.74
40692;BME280;26377;53.344;14.886;2022-12-11T08:11:26;100872.27;;;-2.39;70.76
40692;BME280;26377;53.344;14.886;2022-12-11T08:13:55;100877.48;;;-2.34;70.90
40692;BME280;26377;53.344;14.886;2022-12-11T08:16:27;100883.55;;;-2.31;70.90
40692;BME280;26377;53.344;14.886;2022-12-11T08:18:56;100880.51;;;-2.27;70.92
40692;BME280;26377;53.344;14.886;2022-12-11T08:21:25;100892.22;;;-2.18;71.10
40692;BME280;26377;53.344;14.886;2022-12-11T08:23:53;100887.47;;;-2.11;71.10
40692;BME280;26377;53.344;14.886;2022-12-11T08:26:27;100882.27;;;-2.07;71.06
40692;BME280;26377;53.344;14.886;2022-12-11T08:28:53;100880.98;;;-2.02;71.08
40692;BME280;26377;53.344;14.886;2022-12-11T08:31:21;100873.16;;;-1.99;71.08
40692;BME280;26377;53.344;14.886;2022-12-11T08:33:51;100878.39;;;-1.93;71.21
40692;BME280;26377;53.344;14.886;2022-12-11T08:36:20;100882.28;;;-1.86;71.19
40692;BME280;26377;53.344;14.886;2022-12-11T08:38:49;100879.67;;;-1.80;71.20
40692;BME280;26377;53.344;14.886;2022-12-11T08:41:20;100878.80;;;-1.79;71.02
40692;BME280;26377;53.344;14.886;2022-12-11T08:43:49;100877.07;;;-1.80;71.04
40692;BME280;26377;53.344;14.886;2022-12-11T08:46:18;100871.86;;;-1.81;71.02
40692;BME280;26377;53.344;14.886;2022-12-11T08:48:46;100875.33;;;-1.76;71.11
40692;BME280;26377;53.344;14.886;2022-12-11T08:51:15;100872.30;;;-1.76;71.12
40692;BME280;26377;53.344;14.886;2022-12-11T08:53:44;100868.84;;;-1.72;71.11
40692;BME280;26377;53.344;14.886;2022-12-11T09:02:01;100857.50;;;-1.48;71.13
40692;BME280;26377;53.344;14.886;2022-12-11T09:04:28;100854.91;;;-1.47;71.24
40692;BME280;26377;53.344;14.886;2022-12-11T09:06:55;100843.63;;;-1.43;71.24
40692;BME280;26377;53.344;14.886;2022-12-11T09:09:23;100846.66;;;-1.36;71.28
40692;BME280;26377;53.344;14.886;2022-12-11T09:11:51;100843.15;;;-1.32;71.18
40692;BME280;26377;53.344;14.886;2022-12-11T09:14:18;100842.73;;;-1.27;71.24
40692;BME280;26377;53.344;14.886;2022-12-11T09:16:47;100842.70;;;-1.21;71.24
40692;BME280;26377;53.344;14.886;2022-12-11T09:19:14;100841.37;;;-1.13;71.30
40692;BME280;26377;53.344;14.886;2022-12-11T09:21:43;100832.22;;;-1.06;71.29
40692;BME280;26377;53.344;14.886;2022-12-11T09:24:11;100829.58;;;-1.00;71.21
40692;BME280;26377;53.344;14.886;2022-12-11T09:26:39;100821.77;;;-0.98;71.17
40692;BME280;26377;53.344;14.886;2022-12-11T09:29:08;100821.77;;;-0.94;71.13
40692;BME280;26377;53.344;14.886;2022-12-11T09:31:37;100822.61;;;-0.93;71.04
40692;BME280;26377;53.344;14.886;2022-12-11T09:34:08;100821.77;;;-0.94;71.07
40692;BME280;26377;53.344;14.886;2022-12-11T09:36:39;100818.27;;;-0.90;71.19
40692;BME280;26377;53.344;14.886;2022-12-11T09:39:08;100826.93;;;-0.86;71.19
40692;BME280;26377;53.344;14.886;2022-12-11T09:42:03;100828.64;;;-0.81;71.28
40692;BME280;26377;53.344;14.886;2022-12-11T09:44:51;100826.42;;;-0.75;71.24
40692;BME280;26377;53.344;14.886;2022-12-11T09:50:15;100811.62;;;-0.66;71.17
40692;BME280;26377;53.344;14.886;2022-12-11T09:53:10;100810.78;;;-0.69;71.02
40692;BME280;26377;53.344;14.886;2022-12-11T10:04:58;100802.87;;;-0.57;71.35
40692;BME280;26377;53.344;14.886;2022-12-11T10:10:37;100801.51;;;-0.50;71.36
40692;BME280;26377;53.344;14.886;2022-12-11T10:15:58;100800.61;;;-0.46;71.15
40692;BME280;26377;53.344;14.886;2022-12-11T10:18:43;100793.69;;;-0.50;71.13
40692;BME280;26377;53.344;14.886;2022-12-11T10:21:12;100784.14;;;-0.49;71.15
40692;BME280;26377;53.344;14.886;2022-12-11T10:24:00;100788.05;;;-0.46;71.20
40692;BME280;26377;53.344;14.886;2022-12-11T10:26:29;100777.58;;;-0.43;71.23
40692;BME280;26377;53.344;14.886;2022-12-11T10:28:59;100779.28;;;-0.36;71.29
40692;BME280;26377;53.344;14.886;2022-12-11T10:31:56;100775.31;;;-0.30;71.27
40692;BME280;26377;53.344;14.886;2022-12-11T10:34:32;100781.77;;;-0.26;71.27
40692;BME280;26377;53.344;14.886;2022-12-11T10:37:05;100789.09;;;-0.18;71.43
40692;BME280;26377;53.344;14.886;2022-12-11T10:39:33;100780.80;;;-0.14;71.25
40692;BME280;26377;53.344;14.886;2022-12-11T10:42:01;100781.69;;;-0.15;71.21
40692;BME280;26377;53.344;14.886;2022-12-11T10:44:32;100781.68;;;-0.14;71.11
40692;BME280;26377;53.344;14.886;2022-12-11T10:47:11;100776.05;;;-0.16;71.15
40692;BME280;26377;53.344;14.886;2022-12-11T10:49:55;100781.27;;;-0.16;71.07
40692;BME280;26377;53.344;14.886;2022-12-11T10:52:31;100781.28;;;-0.19;71.05
40692;BME280;26377;53.344;14.886;2022-12-11T10:55:24;100772.63;;;-0.20;71.02
40692;BME280;26377;53.344;14.886;2022-12-11T10:58:02;100768.29;;;-0.21;71.14
40692;BME280;26377;53.344;14.886;2022-12-11T11:00:40;100763.89;;;-0.16;71.19
40692;BME280;26377;53.344;14.886;2022-12-11T11:03:24;100754.77;;;-0.16;71.09
40692;BME280;26377;53.344;14.886;2022-12-11T11:06:16;100749.06;;;-0.09;71.29
40692;BME280;26377;53.344;14.886;2022-12-11T11:08:47;100738.15;;;-0.04;71.25
40692;BME280;26377;53.344;14.886;2022-12-11T11:11:25;100730.26;;;0.02;71.31
40692;BME280;26377;53.344;14.886;2022-12-11T11:14:27;100732.38;;;0.05;71.15
40692;BME280;26377;53.344;14.886;2022-12-11T11:16:40;100726.75;;;0.04;71.07
40692;BME280;26377;53.344;14.886;2022-12-11T11:19:28;100728.94;;;0.03;70.98
40692;BME280;26377;53.344;14.886;2022-12-11T11:22:03;100738.50;;;0.01;71.10
40692;BME280;26377;53.344;14.886;2022-12-11T11:24:55;100725.06;;;-0.01;71.01
40692;BME280;26377;53.344;14.886;2022-12-11T11:27:44;100717.23;;;-0.01;70.95
40692;BME280;26377;53.344;14.886;2022-12-11T11:30:26;100712.42;;;0.01;71.10
40692;BME280;26377;53.344;14.886;2022-12-11T11:32:53;100707.67;;;0.01;71.07
40692;BME280;26377;53.344;14.886;2022-12-11T11:35:25;100698.97;;;0.00;70.91
40692;BME280;26377;53.344;14.886;2022-12-11T11:38:00;100701.16;;;0.01;70.98
40692;BME280;26377;53.344;14.886;2022-12-11T11:43:35;100693.00;;;-0.09;70.81
40692;BME280;26377;53.344;14.886;2022-12-11T11:49:12;100694.31;;;-0.09;70.92
40692;BME280;26377;53.344;14.886;2022-12-11T11:52:02;100688.61;;;-0.06;71.01
40692;BME280;26377;53.344;14.886;2022-12-11T11:54:38;100687.75;;;-0.08;70.97
40692;BME280;26377;53.344;14.886;2022-12-11T11:57:26;100684.28;;;-0.07;70.88
40692;BME280;26377;53.344;14.886;2022-12-11T11:59:52;100683.83;;;-0.06;70.90
40692;BME280;26377;53.344;14.886;2022-12-11T12:02:20;100677.72;;;-0.05;70.76
40692;BME280;26377;53.344;14.886;2022-12-11T12:04:48;100682.53;;;-0.08;70.78
40692;BME280;26377;53.344;14.886;2022-12-11T12:10:25;100683.02;;;-0.11;70.81
40692;BME280;26377;53.344;14.886;2022-12-11T12:15:55;100673.38;;;-0.05;70.94
40692;BME280;26377;53.344;14.886;2022-12-11T12:18:58;100670.77;;;-0.03;70.86
40692;BME280;26377;53.344;14.886;2022-12-11T12:21:33;100662.88;;;0.01;70.94
40692;BME280;26377;53.344;14.886;2022-12-11T12:26:47;100666.66;;;0.13;70.88
40692;BME280;26377;53.344;14.886;2022-12-11T12:29:38;100666.25;;;0.13;70.74
40692;BME280;26377;53.344;14.886;2022-12-11T12:38:18;100674.19;;;0.02;70.62
40692;BME280;26377;53.344;14.886;2022-12-11T12:46:45;100660.31;;;0.00;70.71
40692;BME280;26377;53.344;14.886;2022-12-11T12:49:37;100667.20;;;0.04;70.70
40692;BME280;26377;53.344;14.886;2022-12-11T12:54:55;100663.67;;;0.08;70.74
40692;BME280;26377;53.344;14.886;2022-12-11T12:57:45;100664.15;;;0.06;70.65
40692;BME280;26377;53.344;14.886;2022-12-11T13:03:12;100665.79;;;0.13;70.84
40692;BME280;26377;53.344;14.886;2022-12-11T13:06:07;100667.95;;;0.17;70.73
40692;BME280;26377;53.344;14.886;2022-12-11T13:08:23;100672.76;;;0.14;70.57
40692;BME280;26377;53.344;14.886;2022-12-11T13:11:06;100674.97;;;0.10;70.55
40692;BME280;26377;53.344;14.886;2022-12-11T13:13:40;100671.97;;;0.06;70.54
40692;BME280;26377;53.344;14.886;2022-12-11T13:18:46;100668.91;;;0.06;70.60
40692;BME280;26377;53.344;14.886;2022-12-11T13:21:33;100668.07;;;0.04;70.66
40692;BME280;26377;53.344;14.886;2022-12-11T13:26:49;100664.16;;;0.04;70.55
40692;BME280;26377;53.344;14.886;2022-12-11T13:34:54;100670.28;;;0.00;70.53
40692;BME280;26377;53.344;14.886;2022-12-11T13:40:18;100672.91;;;-0.01;70.45
40692;BME280;26377;53.344;14.886;2022-12-11T13:45:38;100677.72;;;-0.04;70.49
40692;BME280;26377;53.344;14.886;2022-12-11T13:51:20;100685.53;;;-0.02;70.58
40692;BME280;26377;53.344;14.886;2022-12-11T13:56:29;100680.22;;;0.05;70.64
40692;BME280;26377;53.344;14.886;2022-12-11T13:58:57;100683.72;;;0.04;70.50
40692;BME280;26377;53.344;14.886;2022-12-11T14:01:28;100681.11;;;0.04;70.50
40692;BME280;26377;53.344;14.886;2022-12-11T14:03:58;100695.05;;;0.02;70.44
40692;BME280;26377;53.344;14.886;2022-12-11T14:06:32;100695.05;;;0.02;70.58
40692;BME280;26377;53.344;14.886;2022-12-11T14:09:02;100689.83;;;0.02;70.65
40692;BME280;26377;53.344;14.886;2022-12-11T14:11:39;100697.66;;;0.02;70.57
40692;BME280;26377;53.344;14.886;2022-12-11T14:14:20;100697.23;;;0.01;70.57
40692;BME280;26377;53.344;14.886;2022-12-11T14:16:48;100702.88;;;0.00;70.57
40692;BME280;26377;53.344;14.886;2022-12-11T14:19:19;100699.39;;;0.01;70.63
40692;BME280;26377;53.344;14.886;2022-12-11T14:22:02;100712.00;;;0.02;70.63
40692;BME280;26377;53.344;14.886;2022-12-11T14:24:31;100708.97;;;0.03;70.68
40692;BME280;26377;53.344;14.886;2022-12-11T14:26:58;100708.98;;;-0.01;70.57
40692;BME280;26377;53.344;14.886;2022-12-11T14:29:29;100705.55;;;-0.04;70.62
40692;BME280;26377;53.344;14.886;2022-12-11T14:32:01;100693.82;;;-0.04;70.62
40692;BME280;26377;53.344;14.886;2022-12-11T14:34:36;100692.13;;;-0.10;70.61
40692;BME280;26377;53.344;14.886;2022-12-11T14:37:13;100693.02;;;-0.12;70.70
40692;BME280;26377;53.344;14.886;2022-12-11T14:42:41;100681.73;;;-0.14;70.67